createdAt,value
2023-09-13T00:01:51.348Z,78.96
2023-09-13T00:07:01.504Z,79.10
2023-09-13T00:12:12.390Z,79.10
2023-09-13T00:17:25.155Z,79.31
2023-09-13T00:22:34.716Z,79.22
2023-09-13T00:27:44.360Z,79.17
2023-09-13T00:32:54.268Z,79.08
2023-09-13T00:38:04.277Z,79.01
2023-09-13T00:43:14.236Z,79.15
2023-09-13T00:48:26.046Z,79.25
2023-09-13T00:53:37.734Z,79.38
2023-09-13T00:58:49.120Z,79.58
2023-09-13T01:04:01.195Z,79.57
2023-09-13T01:09:11.405Z,79.42
2023-09-13T01:14:23.037Z,79.35
2023-09-13T01:19:58.983Z,79.51
2023-09-13T01:25:56.893Z,79.46
2023-09-13T01:31:09.547Z,79.53
2023-09-13T01:36:19.465Z,79.58
2023-09-13T01:41:39.116Z,79.54
2023-09-13T01:46:51.604Z,79.60
2023-09-13T01:52:02.165Z,79.68
2023-09-13T01:57:12.194Z,79.82
2023-09-13T02:02:22.191Z,79.78
2023-09-13T02:07:32.191Z,79.84
2023-09-13T02:12:42.052Z,79.92
2023-09-13T02:17:51.896Z,80.02
2023-09-13T02:23:01.539Z,80.10
2023-09-13T02:28:11.857Z,80.12
2023-09-13T02:33:21.616Z,79.99
2023-09-13T02:38:31.185Z,80.18
2023-09-13T02:43:42.408Z,80.03
2023-09-13T02:48:52.921Z,80.20
2023-09-13T02:54:02.978Z,80.38
2023-09-13T02:59:12.866Z,80.46
2023-09-13T03:04:22.640Z,80.26
2023-09-13T03:09:32.279Z,80.17
2023-09-13T03:14:42.040Z,80.31
2023-09-13T03:19:51.682Z,80.36
2023-09-13T03:25:01.486Z,80.36
2023-09-13T03:30:13.573Z,80.43
2023-09-13T03:35:23.700Z,80.39
2023-09-13T03:40:33.738Z,80.47
2023-09-13T03:45:43.572Z,80.69
2023-09-13T03:50:53.787Z,80.65
2023-09-13T03:56:04.417Z,80.61
2023-09-13T04:01:14.593Z,80.78
2023-09-13T04:06:26.883Z,80.86
2023-09-13T04:11:36.571Z,80.82
2023-09-13T04:16:46.570Z,80.69
2023-09-13T04:21:56.774Z,80.54
2023-09-13T04:27:06.849Z,80.42
2023-09-13T04:32:16.875Z,80.54
2023-09-13T04:37:28.257Z,80.54
2023-09-13T04:42:49.760Z,80.53
2023-09-13T04:47:59.526Z,80.60
2023-09-13T04:53:10.019Z,80.61
2023-09-13T04:58:19.855Z,80.77
2023-09-13T05:03:30.009Z,81.18
2023-09-13T05:08:40.788Z,81.18
2023-09-13T05:13:51.409Z,80.72
2023-09-13T05:19:01.443Z,80.62
2023-09-13T05:24:12.427Z,80.53
2023-09-13T05:29:22.889Z,80.56
2023-09-13T05:34:33.301Z,80.55
2023-09-13T05:39:43.593Z,80.51
2023-09-13T05:44:53.507Z,80.49
2023-09-13T05:50:03.439Z,80.43
2023-09-13T05:55:14.366Z,80.34
2023-09-13T06:00:24.362Z,80.18
2023-09-13T06:05:34.284Z,80.01
2023-09-13T06:10:44.238Z,79.69
2023-09-13T06:15:54.310Z,79.57
2023-09-13T06:21:05.233Z,79.42
2023-09-13T06:26:15.174Z,79.13
2023-09-13T06:31:33.486Z,78.93
2023-09-13T06:36:44.844Z,78.68
2023-09-13T06:41:55.354Z,78.46
2023-09-13T06:47:05.864Z,78.28
2023-09-13T06:52:16.897Z,78.11
2023-09-13T06:57:30.548Z,77.99
2023-09-13T07:02:45.297Z,77.60
2023-09-13T07:07:55.971Z,76.82
2023-09-13T07:13:06.856Z,76.43
2023-09-13T07:18:16.824Z,76.01
2023-09-13T07:23:26.814Z,75.48
2023-09-13T07:28:36.992Z,74.94
2023-09-13T07:33:48.170Z,74.42
2023-09-13T07:38:58.308Z,73.82
2023-09-13T07:44:08.879Z,73.43
2023-09-13T07:49:18.876Z,73.44
2023-09-13T07:54:29.236Z,73.03
2023-09-13T07:59:40.457Z,72.25
2023-09-13T08:04:51.354Z,71.06
2023-09-13T08:10:02.985Z,70.52
2023-09-13T08:15:15.452Z,68.84
2023-09-13T08:20:25.503Z,69.46
2023-09-13T08:25:35.220Z,69.26
2023-09-13T08:30:44.972Z,68.75
2023-09-13T08:35:54.839Z,68.62
2023-09-13T08:41:05.494Z,68.24
2023-09-13T08:46:16.984Z,67.75
2023-09-13T08:51:28.638Z,66.96
2023-09-13T08:56:44.028Z,66.64
2023-09-13T09:01:56.592Z,65.84
2023-09-13T09:07:07.922Z,64.82
2023-09-13T09:12:20.262Z,64.40
2023-09-13T09:17:31.659Z,63.54
2023-09-13T09:22:43.752Z,62.95
2023-09-13T09:27:53.545Z,62.34
2023-09-13T09:33:08.607Z,60.26
2023-09-13T09:38:30.269Z,59.19
2023-09-13T09:43:40.313Z,57.74
2023-09-13T09:48:50.416Z,57.31
2023-09-13T09:54:00.915Z,55.85
2023-09-13T09:59:11.441Z,55.74
2023-09-13T10:04:21.183Z,54.38
2023-09-13T10:09:42.802Z,53.49
2023-09-13T10:14:52.553Z,52.64
2023-09-13T10:20:03.272Z,51.96
2023-09-13T10:25:20.061Z,51.78
2023-09-13T10:30:34.926Z,50.31
2023-09-13T10:35:51.089Z,49.90
2023-09-13T10:41:08.050Z,50.17
2023-09-13T10:46:19.237Z,50.24
2023-09-13T10:51:32.016Z,49.51
2023-09-13T10:56:42.521Z,49.13
2023-09-13T11:01:53.321Z,48.81
2023-09-13T11:07:06.341Z,48.37
2023-09-13T11:12:17.636Z,48.40
2023-09-13T11:17:45.694Z,48.10
2023-09-13T11:28:46.252Z,47.15
2023-09-13T11:34:01.921Z,46.61
2023-09-13T11:39:13.045Z,45.54
2023-09-13T11:44:33.142Z,45.27
2023-09-13T11:50:02.682Z,45.35
2023-09-13T11:55:34.792Z,44.42
2023-09-13T12:00:49.543Z,44.38
2023-09-13T12:06:17.869Z,44.65
2023-09-13T12:11:32.575Z,44.61
2023-09-13T12:16:44.577Z,43.92
2023-09-13T12:21:54.793Z,44.06
2023-09-13T12:27:06.991Z,44.51
2023-09-13T12:32:18.336Z,44.55
2023-09-13T12:37:28.286Z,43.58
2023-09-13T12:42:42.142Z,44.34
2023-09-13T12:47:53.660Z,44.61
2023-09-13T12:53:04.049Z,44.31
2023-09-13T12:58:13.826Z,44.54
2023-09-13T13:03:26.673Z,44.14
2023-09-13T13:08:43.755Z,44.13
2023-09-13T13:13:54.241Z,43.88
2023-09-13T13:19:21.922Z,43.17
2023-09-13T13:24:34.055Z,43.55
2023-09-13T13:29:44.947Z,43.60
2023-09-13T13:34:54.786Z,44.26
2023-09-13T13:40:05.546Z,44.13
2023-09-13T13:45:16.148Z,44.37
2023-09-13T13:50:26.003Z,44.79
2023-09-13T13:55:36.034Z,44.97
2023-09-13T14:00:46.345Z,45.27
2023-09-13T14:05:57.127Z,45.67
2023-09-13T14:11:07.357Z,45.92
2023-09-13T14:16:17.126Z,46.26
2023-09-13T14:21:26.916Z,46.26
2023-09-13T14:26:37.268Z,46.37
2023-09-13T14:31:47.593Z,46.65
2023-09-13T14:36:57.407Z,46.90
2023-09-13T14:42:07.637Z,46.99
2023-09-13T14:47:18.078Z,47.10
2023-09-13T14:52:28.193Z,47.19
2023-09-13T14:57:39.349Z,47.19
2023-09-13T15:02:49.498Z,47.37
2023-09-13T15:07:59.764Z,47.28
2023-09-13T15:13:10.406Z,47.17
2023-09-13T15:18:20.200Z,47.34
2023-09-13T15:23:29.939Z,47.48
2023-09-13T15:28:39.936Z,47.70
2023-09-13T15:33:49.637Z,48.11
2023-09-13T15:39:01.047Z,48.41
2023-09-13T15:44:12.439Z,49.03
2023-09-13T15:49:28.409Z,50.17
2023-09-13T15:54:38.100Z,50.65
2023-09-13T15:59:49.252Z,51.19
2023-09-13T16:04:59.228Z,51.62
2023-09-13T16:10:12.175Z,51.38
2023-09-13T16:15:22.670Z,50.95
2023-09-13T16:20:32.467Z,50.63
2023-09-13T16:25:42.206Z,50.73
2023-09-13T16:30:52.390Z,51.04
2023-09-13T16:36:02.444Z,51.33
2023-09-13T16:41:12.390Z,51.72
2023-09-13T16:46:22.278Z,52.03
2023-09-13T16:51:32.107Z,52.42
2023-09-13T16:56:42.006Z,52.78
2023-09-13T17:01:52.044Z,53.19
2023-09-13T17:07:02.147Z,53.53
2023-09-13T17:12:13.118Z,53.88
2023-09-13T17:17:24.749Z,54.38
2023-09-13T17:22:35.129Z,54.65
2023-09-13T17:27:45.070Z,55.04
2023-09-13T17:32:55.250Z,55.41
2023-09-13T17:38:05.947Z,55.78
2023-09-13T17:43:16.278Z,55.99
2023-09-13T17:48:26.346Z,56.26
2023-09-13T17:53:36.112Z,56.78
2023-09-13T17:58:46.162Z,57.49
2023-09-13T18:03:56.256Z,58.85
2023-09-13T18:09:06.425Z,60.06
2023-09-13T18:14:16.415Z,61.19
2023-09-13T18:19:26.275Z,61.97
2023-09-13T18:24:39.444Z,62.80
2023-09-13T18:29:51.022Z,63.68
2023-09-13T18:35:00.797Z,63.69
2023-09-13T18:40:13.655Z,64.85
2023-09-13T18:45:23.688Z,65.48
2023-09-13T18:50:34.048Z,65.89
2023-09-13T18:55:47.054Z,66.54
2023-09-13T19:01:02.708Z,66.50
2023-09-13T19:06:13.623Z,67.93
2023-09-13T19:11:24.733Z,67.94
2023-09-13T19:16:35.371Z,67.93
2023-09-13T19:21:45.161Z,68.25
2023-09-13T19:26:55.508Z,68.69
2023-09-13T19:32:05.873Z,69.10
2023-09-13T19:37:15.684Z,69.12
2023-09-13T19:42:25.513Z,69.65
2023-09-13T19:47:35.628Z,70.33
2023-09-13T19:52:46.359Z,70.25
2023-09-13T19:57:57.769Z,70.62
2023-09-13T20:03:08.302Z,70.76
2023-09-13T20:08:18.184Z,71.19
2023-09-13T20:13:27.971Z,71.53
2023-09-13T20:18:38.037Z,71.54
2023-09-13T20:23:48.526Z,72.15
2023-09-13T20:28:58.552Z,72.35
2023-09-13T20:34:08.919Z,72.61
2023-09-13T20:39:18.620Z,72.56
2023-09-13T20:44:28.359Z,73.17
2023-09-13T20:49:38.215Z,73.40
2023-09-13T20:54:48.184Z,73.79
2023-09-13T20:59:58.099Z,74.25
2023-09-13T21:05:08.748Z,74.35
2023-09-13T21:10:18.766Z,75.00
2023-09-13T21:15:28.709Z,75.65
2023-09-13T21:20:38.373Z,75.65
2023-09-13T21:25:48.256Z,75.49
2023-09-13T21:31:02.287Z,75.43
2023-09-13T21:36:12.436Z,75.68
2023-09-13T21:41:22.288Z,75.63
2023-09-13T21:46:31.978Z,76.00
2023-09-13T21:51:41.746Z,75.75
2023-09-13T21:56:51.798Z,75.71
2023-09-13T22:02:01.446Z,75.50
2023-09-13T22:07:11.396Z,75.49
2023-09-13T22:12:21.218Z,75.71
2023-09-13T22:17:31.299Z,76.50
2023-09-13T22:22:41.159Z,76.89
2023-09-13T22:27:50.883Z,77.64
2023-09-13T22:33:00.627Z,77.77
2023-09-13T22:38:12.548Z,77.99
2023-09-13T22:43:22.637Z,78.19
2023-09-13T22:48:32.232Z,78.28
2023-09-13T22:53:41.886Z,78.33
2023-09-13T22:58:51.628Z,78.47
2023-09-13T23:04:01.762Z,78.60
2023-09-13T23:09:12.667Z,78.82
2023-09-13T23:14:22.291Z,78.82
2023-09-13T23:19:31.908Z,79.53
2023-09-13T23:24:41.508Z,79.54
2023-09-13T23:29:50.989Z,79.77
2023-09-13T23:35:01.060Z,80.01
2023-09-13T23:40:13.471Z,80.15
2023-09-13T23:45:23.360Z,80.45
2023-09-13T23:50:33.151Z,80.44
2023-09-13T23:55:42.959Z,80.42
